Latest Conditions
At L.F.Wade Int. Airport
Recorded at 12:55 pm
Few Clouds
Temp.: 
22°C/71°F
Humidity: 
76%
Wind: 
NW 6KT
or 7mph
UV Index: 
6
Island Observations
 
Observations
Wednesday, April 17, 2024

Observations are in local time and taken at least once an hour, or upon the start and end of specified events such as showers and thunderstorms.

Time Sky / Weather Wind Speed/Gusts Temp. R.H. Pressure
     knots (mph)  °C (°F)  %  mb / "Hg
 12:55 Few Clouds  NW 6/0 (7/0) 22(71) 76 1022 / 30.18
 11:55 Few Clouds  W 5/0 (6/0) 21(70) 82 1022 / 30.19
 10:55 Few Clouds  NW 6/0 (7/0) 21(70) 81 1023 / 30.20
 09:55 Partly Cloudy  WNW 5/0 (6/0) 21(69) 85 1022 / 30.19
 08:55 Partly Cloudy  W 3/0 (3/0) 20(68) 91 1022 / 30.18
 07:55 Partly Cloudy  Calm 19(67) 95 1022 / 30.18
 06:55 Few Clouds  NNW 3/0 (3/0) 18(65) 100 1022 / 30.17
 05:55 Partly Cloudy  NNW 2/0 (2/0) 18(65) 100 1021 / 30.16
 05:34 Mostly Cloudy  NNW 3/0 (3/0) 18(65) 100 1021 / 30.16
 04:55 Few Clouds  NNW 2/0 (2/0) 18(65) 100 1021 / 30.15
 03:55 Few Clouds  WNW 1/0 (1/0) 18(65) 100 1021 / 30.16
 02:55 Few Clouds  N 2/0 (2/0) 18(65) 100 1022 / 30.17
 01:55 Few Clouds  E 2/0 (2/0) 18(65) 100 1022 / 30.18
 00:55 Few Clouds  VRB 2/0 (2/0) 19(66) 100 1022 / 30.19
 23:55 Few Clouds  N 5/0 (6/0) 19(67) 100 1023 / 30.20
 22:55 Few Clouds  N 4/0 (5/0) 19(67) 100 1022 / 30.19
 21:55 Few Clouds  N 3/0 (3/0) 20(67) 99 1023 / 30.20
 20:55 Few Clouds  NNE 2/0 (2/0) 20(68) 97 1022 / 30.19
 19:55 Few Clouds  ENE 3/0 (3/0) 20(69) 93 1022 / 30.18
 18:55 Partly Cloudy  ESE 5/0 (6/0) 21(70) 90 1021 / 30.16
 17:55 Partly Cloudy  SE 4/0 (5/0) 21(71) 87 1021 / 30.16
 16:55 Partly Cloudy  SE 7/0 (8/0) 22(72) 81 1021 / 30.15
 15:55 Few Clouds  ESE 8/0 (9/0) 22(72) 81 1022 / 30.17
 14:55 Partly Cloudy  ESE 6/0 (7/0) 22(72) 79 1023 / 30.20
 13:55 Partly Cloudy  E 8/0 (9/0) 22(71) 84 1023 / 30.20
 12:55 Mostly Cloudy  ENE 9/0 (10/0) 21(70) 87 1023 / 30.21
 11:55 Partly Cloudy  ESE 6/0 (7/0) 22(72) 81 1023 / 30.22
 10:55 Partly Cloudy  ESE 8/0 (9/0) 22(71) 81 1023 / 30.22
 09:55 Mostly Cloudy  ENE 7/0 (8/0) 20(69) 89 1023 / 30.22
 09:17 Mostly Cloudy  ENE 5/0 (6/0) 21(69) 87 1023 / 30.22
 08:55 Partly Cloudy  NE 6/0 (7/0) 20(68) 91 1023 / 30.21
 07:55 Few Clouds  E 4/0 (5/0) 20(67) 95 1023 / 30.21
 06:55 Mostly Cloudy  E 6/0 (7/0) 18(65) 97 1022 / 30.19
 06:38 Mostly Cloudy Showers E 4/0 (5/0) 19(66) 97 1022 / 30.19
 05:55 Mostly Cloudy  E 7/0 (8/0) 19(66) 95 1022 / 30.19
 05:30 Mostly Cloudy Drizzle E 7/0 (8/0) 19(66) 95 1022 / 30.18
 04:55 Mostly Cloudy  E 8/0 (9/0) 18(65) 94 1022 / 30.17
 03:55 Mostly Cloudy  E 8/0 (9/0) 19(66) 89 1022 / 30.17
 02:55 Mostly Cloudy  ESE 9/0 (10/0) 19(67) 85 1022 / 30.18
 01:55 Mostly Cloudy  ESE 10/0 (12/0) 19(67) 82 1023 / 30.21
 00:55 Partly Cloudy  ESE 10/0 (12/0) 19(66) 80 1023 / 30.22
 23:55 Few Clouds  ESE 10/0 (12/0) 19(66) 80 1023 / 30.22
 22:55 Few Clouds  ESE 9/0 (10/0) 19(66) 79 1023 / 30.22
 21:55 Mostly Cloudy  ESE 8/0 (9/0) 20(67) 75 1024 / 30.24
 20:55 Mostly Cloudy  ESE 8/0 (9/0) 19(66) 71 1024 / 30.23
 19:55 Few Clouds  ESE 7/0 (8/0) 19(67) 69 1023 / 30.22
 18:55 Few Clouds  ESE 8/0 (9/0) 20(68) 63 1023 / 30.22
 17:55 Few Clouds  ESE 8/0 (9/0) 21(70) 56 1023 / 30.22
 16:55 Partly Cloudy  ESE 7/0 (8/0) 21(70) 54 1023 / 30.21
 15:55 Partly Cloudy  ESE 8/0 (9/0) 21(70) 52 1023 / 30.21
 14:55 Few Clouds  SE 8/0 (9/0) 21(70) 53 1023 / 30.22
 13:55 Few Clouds  ESE 7/0 (8/0) 21(70) 49 1024 / 30.23
 12:55 Few Clouds  ESE 7/0 (8/0) 21(70) 53 1024 / 30.25
 11:55 Few Clouds  ESE 7/0 (8/0) 20(69) 51 1025 / 30.26
 10:55 Few Clouds  VRB 6/0 (7/0) 21(69) 49 1025 / 30.27
 09:55 Few Clouds  E 5/0 (6/0) 20(68) 51 1025 / 30.27
 08:55 Few Clouds  E 4/0 (5/0) 19(67) 52 1024 / 30.25
 07:55 Few Clouds  E 4/0 (5/0) 17(63) 67 1024 / 30.24
 06:55 Few Clouds  E 5/0 (6/0) 14(57) 85 1023 / 30.21
 05:55 Few Clouds  VRB 2/0 (2/0) 14(57) 93 1022 / 30.19
 04:55 Clear  Calm 15(58) 88 1022 / 30.17
 03:55 Clear  Calm 15(58) 89 1022 / 30.17
 02:55 Clear  NW 2/0 (2/0) 15(59) 95 1022 / 30.18
 01:55 Clear  Calm 15(60) 91 1023 / 30.20
 00:55 Clear  Calm 15(60) 87 1023 / 30.21
 23:55 Clear  Calm 15(60) 82 1023 / 30.21
 22:55 Clear  Calm 17(62) 68 1023 / 30.21
 21:55 Clear  VRB 1/0 (1/0) 17(63) 63 1023 / 30.21
 20:55 Clear  N 2/0 (2/0) 17(63) 74 1023 / 30.20
 19:55 Clear  NNW 3/0 (3/0) 19(66) 57 1022 / 30.18
 18:55 Few Clouds  N 4/0 (5/0) 20(68) 51 1022 / 30.17
 17:55 Few Clouds  NNW 7/0 (8/0) 20(69) 54 1022 / 30.17
 16:55 Clear  NW 9/0 (10/0) 21(70) 54 1021 / 30.16
 15:55 Few Clouds  NNW 9/0 (10/0) 21(69) 55 1021 / 30.16
 14:55 Few Clouds  NNW 10/0 (12/0) 21(70) 53 1022 / 30.17
 13:55 Few Clouds  NNW 10/0 (12/0) 21(70) 56 1022 / 30.17
 12:55 Few Clouds  NW 10/0 (12/0) 21(70) 60 1022 / 30.17
 11:55 Few Clouds  NW 12/0 (14/0) 21(70) 60 1022 / 30.17
 10:55 Few Clouds  NW 11/0 (13/0) 21(69) 64 1021 / 30.16
 09:55 Few Clouds  NW 11/0 (13/0) 20(68) 67 1021 / 30.14
 08:55 Few Clouds  WNW 11/0 (13/0) 20(68) 69 1020 / 30.12
 07:55 Few Clouds Showers WNW 10/0 (12/0) 19(66) 68 1020 / 30.11
 06:55 Few Clouds Showers WNW 6/0 (7/0) 18(65) 77 1019 / 30.09
 05:55 Few Clouds  W 8/0 (9/0) 18(65) 77 1018 / 30.06
 04:55 Few Clouds  W 10/0 (12/0) 18(65) 70 1018 / 30.05
 03:55 Mostly Cloudy Showers W 13/0 (15/0) 18(65) 69 1018 / 30.05
 03:45 Mostly Cloudy Showers WNW 12/0 (14/0) 18(65) 76 1018 / 30.05
 03:29 Mostly Cloudy Showers WNW 15/0 (17/0) 19(66) 77 1018 / 30.05
 02:55 Partly Cloudy  W 14/0 (16/0) 19(66) 74 1018 / 30.05
 01:55 Few Clouds  W 14/0 (16/0) 19(66) 70 1018 / 30.05
 00:55 Few Clouds  W 14/0 (16/0) 19(65) 69 1018 / 30.06
 23:55 Partly Cloudy Showers SW 10/0 (12/0) 18(65) 85 1018 / 30.06
 22:55 Mostly Cloudy  SW 13/0 (15/0) 18(64) 96 1018 / 30.06
 21:55 Few Clouds  SSW 15/0 (17/0) 18(64) 93 1018 / 30.05
 20:55 Few Clouds  SSW 15/0 (17/0) 18(64) 92 1017 / 30.04
 19:55 Few Clouds  SSW 13/0 (15/0) 17(63) 95 1017 / 30.02
 18:55 Mostly Cloudy  S 11/0 (13/0) 18(64) 91 1017 / 30.02
 17:55 Mostly Cloudy  SSW 10/0 (12/0) 18(64) 92 1016 / 30.01
 17:23 Mostly Cloudy  SW 8/0 (9/0) 17(63) 95 1016 / 30.00
 17:06 Mostly Cloudy Rain SW 10/0 (12/0) 17(63) 97 1017 / 30.02
Island AWOS